To NAV CANADA Home Page Login to a new session Search on AWWS site Feedback and Comments Disclaimer Vers la page française équivalente Tips FAQ What's new on the site To the Forecasts and Observations / NOTAM section To "File a Flight Plan" website Publications and other links Update of the User's profile FIC Telephone Numbers My Weather Data Folder Route Weather Data Regional Weather Data Local Weather Data To the Forecasts and Observations / NOTAM section
Request Generated 01/17/2017 at 04:56:07 UTC . Weather information available at that time is displayed.

METAR/TAF

HOPE/BC    (show WxCam)

SPECI CYHE 170449Z AUTO VRB04KT 6SM -RA BR SCT049 OVC070 00/M00 A2999
RMK SLP159=
SPECI CYHE 170445Z AUTO VRB02KT 5SM -RA BR FEW049 OVC070 00/M00 A2999
RMK SLP160=
SPECI CYHE 170438Z AUTO VRB02KT 8SM -RA OVC070 00/M00 A2999 RMK
SLP160=
SPECI CYHE 170427Z AUTO VRB03KT 6SM -RA -UP BR OVC070 00/M00 A2999
RMK SLP160=
METAR CYHE 170400Z AUTO 25005KT 7SM -RA FEW050 OVC070 01/M01 A3001
RMK SLP164=
SPECI CYHE 170319Z AUTO 00000KT 6SM -RA BR BKN050 OVC060 00/M01 A3000
RMK SLP162=
SPECI CYHE 170309Z AUTO 00000KT 5SM -RA BR BKN049 OVC060 00/M01 A2999
RMK SLP160=
METAR CYHE 170300Z AUTO 00000KT 7SM -RA FEW049 OVC060 01/M02 A3000
RMK SLP161=
SPECI CYHE 170248Z AUTO 12004KT 9SM -RA OVC065 01/M02 A2999 RMK
SLP159=
METAR CYHE 170200Z AUTO 10004KT 060V130 9SM OVC070 01/M03 A2995 RMK
SLP146=

CYHE - No TAF is issued for this station

Your time UTC time
Weather data provided by Environment Canada and NAV CANADA